Terminal Aerodrome Forecast
Issued by NWS Albany, NY

Home | Current Version | Previous Version | Text Only | Print | Product List | Glossary On
Versions: 1 2 3 4 5 6 7 8 9 10 11 12 13 14 15 16 17 18 19 20 21 22 23
000
FTUS41 KALY 280523
TAFPOU
TAF
KPOU 280523Z 2806/2906 00000KT P6SM OVC080
      TEMPO 2808/2812 2SM BR OVC007
     FM281500 00000KT 4SM -SHRA OVC010 PROB30 2819/2822 2SM -SHRA
      OVC008
     FM290000 00000KT P6SM OVC008=

USA.gov is the U.S. government's official web portal to all federal, state and local government web resources and services.